Time;durP1;ratioP1;P1;durP2;ratioP2;P2;SDS_P1;SDS_P2;PMS_P1;PMS_P2;Temp;Humidity;BMP_temperature;BMP_pressure;BME280_temperature;BME280_humidity;BME280_pressure;Samples;Min_cycle;Max_cycle;Signal;HPM_P1;HPM_P2
2022/04/20 00:02:00;;;;;;;9.80;3.88;;;;;;;9.58;53.32;99219.16;4924204;29;20142;-67
2022/04/20 00:04:28;;;;;;;10.43;4.13;;;;;;;9.43;53.61;99230.16;4931366;29;20095;-65
2022/04/20 00:06:55;;;;;;;12.60;3.85;;;;;;;9.31;53.98;99223.16;4933709;29;20547;-66
2022/04/20 00:12:08;;;;;;;10.77;4.10;;;;;;;9.34;53.84;99227.22;4930868;29;20055;-67
2022/04/20 00:14:34;;;;;;;11.45;4.43;;;;;;;9.31;53.78;99222.31;4913684;29;20455;-66
2022/04/20 00:17:00;;;;;;;10.70;4.35;;;;;;;9.32;53.89;99226.69;4930281;29;20499;-66
2022/04/20 00:19:27;;;;;;;11.98;4.47;;;;;;;9.22;53.93;99227.53;4934548;29;20128;-66
2022/04/20 00:21:53;;;;;;;12.65;4.40;;;;;;;9.26;53.96;99222.34;4932851;29;20405;-66
2022/04/20 00:24:19;;;;;;;11.88;4.53;;;;;;;9.32;53.66;99213.88;4932379;29;20136;-66
2022/04/20 00:26:46;;;;;;;18.00;4.05;;;;;;;9.25;53.97;99218.00;4931592;29;20584;-68
2022/04/20 00:29:12;;;;;;;10.60;3.97;;;;;;;9.20;53.87;99225.09;4931894;29;20629;-67
2022/04/20 00:31:48;;;;;;;9.63;4.22;;;;;;;9.12;54.09;99220.22;4928595;29;20425;-67
2022/04/20 00:34:14;;;;;;;11.80;3.75;;;;;;;9.17;53.94;99220.19;4933225;29;20516;-67
2022/04/20 00:36:40;;;;;;;9.10;4.28;;;;;;;9.21;53.62;99220.47;4913892;29;20063;-68
2022/04/20 00:39:06;;;;;;;10.95;4.40;;;;;;;9.20;53.37;99224.28;4932418;29;20550;-70
2022/04/20 00:41:33;;;;;;;12.13;4.00;;;;;;;9.14;53.34;99220.75;4931459;29;20055;-68
2022/04/20 00:44:01;;;;;;;10.43;3.80;;;;;;;9.10;53.35;99227.03;4931336;29;20056;-70
2022/04/20 00:46:29;;;;;;;12.20;3.90;;;;;;;9.04;53.50;99228.97;4911945;29;20072;-69
2022/04/20 00:48:56;;;;;;;13.85;4.28;;;;;;;9.03;53.44;99230.06;4933126;29;20071;-69
2022/04/20 00:51:23;;;;;;;;;;;;;;;9.10;53.43;99224.31;4915639;29;20107;-70
2022/04/20 00:53:50;;;;;;;12.32;4.22;;;;;;;9.07;53.22;99229.25;4928939;29;20507;-70
2022/04/20 00:56:17;;;;;;;11.25;4.40;;;;;;;9.03;53.36;99243.69;4921504;29;20424;-70
2022/04/20 00:58:44;;;;;;;14.88;5.10;;;;;;;8.98;53.47;99238.28;4935310;28;20143;-70
2022/04/20 01:01:12;;;;;;;11.95;4.13;;;;;;;9.06;53.21;99235.00;4920556;29;20056;-68
2022/04/20 01:03:42;;;;;;;11.25;4.55;;;;;;;9.10;53.16;99237.94;4919520;29;20296;-70
2022/04/20 01:06:49;;;;;;;10.00;4.20;;;;;;;9.06;53.22;99232.25;4919104;29;20056;-71
2022/04/20 01:09:43;;;;;;;13.18;4.18;;;;;;;9.05;53.06;99245.06;4934707;29;20070;-69
2022/04/20 01:12:31;;;;;;;11.77;4.43;;;;;;;8.99;53.14;99232.56;4931890;29;20058;-70
2022/04/20 01:15:34;;;;;;;13.23;4.38;;;;;;;8.90;53.43;99236.94;4893896;29;20524;-70
2022/04/20 01:18:28;;;;;;;13.63;4.45;;;;;;;8.89;53.31;99230.66;4895718;29;20064;-69
2022/04/20 01:21:01;;;;;;;11.15;3.72;;;;;;;8.88;53.12;99234.47;4918632;29;20436;-70
2022/04/20 01:23:54;;;;;;;9.25;3.83;;;;;;;8.84;53.21;99225.22;4931998;29;20078;-69
2022/04/20 01:26:39;;;;;;;9.52;3.45;;;;;;;8.87;52.78;99227.41;4936136;29;20069;-69
2022/04/20 01:29:33;;;;;;;9.00;3.25;;;;;;;8.85;52.95;99215.94;4917995;29;20207;-70
2022/04/20 01:32:38;;;;;;;9.70;3.30;;;;;;;8.91;52.23;99214.84;4896667;29;20048;-70
2022/04/20 01:35:13;;;;;;;11.13;4.43;;;;;;;8.83;52.44;99209.16;4888596;29;20060;-69
2022/04/20 01:37:40;;;;;;;7.80;3.28;;;;;;;8.72;52.43;99203.75;4900721;29;20071;-69
2022/04/20 01:40:08;;;;;;;10.05;3.15;;;;;;;8.74;52.46;99198.00;4918929;29;20480;-69
2022/04/20 01:42:34;;;;;;;10.85;3.13;;;;;;;8.76;52.02;99199.34;4937686;29;20110;-69
2022/04/20 01:45:05;;;;;;;8.73;3.20;;;;;;;8.80;51.76;99189.53;4918894;29;20138;-69
2022/04/20 01:47:45;;;;;;;12.65;3.33;;;;;;;8.80;51.74;99186.00;4917123;29;20432;-70
2022/04/20 01:50:27;;;;;;;10.65;3.40;;;;;;;8.76;51.46;99176.75;4917756;29;20067;-70
2022/04/20 01:53:19;;;;;;;11.35;3.78;;;;;;;8.71;51.68;99182.19;4917002;29;20061;-70
2022/04/20 01:56:06;;;;;;;13.63;3.90;;;;;;;8.62;51.69;99181.94;4926498;29;20146;-70
2022/04/20 01:58:51;;;;;;;17.33;4.50;;;;;;;8.68;51.19;99182.75;4917036;29;20542;-70
2022/04/20 02:04:20;;;;;;;9.93;3.08;;;;;;;8.81;50.52;99182.16;4934352;29;20052;-67
2022/04/20 02:06:47;;;;;;;10.10;3.50;;;;;;;8.74;50.31;99185.19;4919540;29;20158;-67
2022/04/20 02:09:24;;;;;;;9.85;2.92;;;;;;;8.68;50.29;99189.03;4916886;29;20056;-67
2022/04/20 02:12:08;;;;;;;8.32;3.05;;;;;;;8.73;49.89;99183.56;4930109;29;20055;-67
2022/04/20 02:14:54;;;;;;;9.02;2.97;;;;;;;8.63;50.09;99180.84;4931340;29;20056;-68
2022/04/20 02:17:39;;;;;;;11.60;3.10;;;;;;;8.65;49.70;99179.50;4934137;29;20048;-67
2022/04/20 02:20:11;;;;;;;10.27;2.97;;;;;;;8.65;49.39;99198.56;4917500;29;20107;-67
2022/04/20 02:22:39;;;;;;;9.18;3.03;;;;;;;8.62;49.41;99193.69;4918056;29;20064;-69
2022/04/20 02:25:07;;;;;;;15.85;3.63;;;;;;;8.60;49.13;99186.88;4935258;29;20055;-68
2022/04/20 02:27:33;;;;;;;20.40;3.25;;;;;;;8.64;48.95;99187.94;4916183;29;20068;-69
2022/04/20 02:30:00;;;;;;;10.15;2.85;;;;;;;8.61;48.78;99183.88;4917897;29;20067;-69
2022/04/20 02:32:27;;;;;;;8.07;2.47;;;;;;;8.65;48.58;99187.66;4934714;29;20513;-68
2022/04/20 02:34:53;;;;;;;6.53;2.40;;;;;;;8.48;48.49;99182.50;4917721;29;20059;-68
2022/04/20 02:37:19;;;;;;;8.75;3.00;;;;;;;8.54;48.58;99191.50;4917034;29;20052;-68
2022/04/20 02:39:46;;;;;;;7.88;2.72;;;;;;;8.52;48.32;99182.78;4935193;29;20063;-70
2022/04/20 02:42:12;;;;;;;6.97;2.45;;;;;;;8.47;48.44;99191.75;4918409;29;20102;-69
2022/04/20 02:44:40;;;;;;;9.18;2.67;;;;;;;8.52;48.43;99182.78;4917327;29;20059;-68
2022/04/20 02:47:07;;;;;;;6.93;2.50;;;;;;;8.49;48.24;99191.50;4934983;29;20531;-68
2022/04/20 02:49:35;;;;;;;11.93;2.80;;;;;;;8.64;48.29;99201.56;4935174;29;20490;-68
2022/04/20 02:52:01;;;;;;;;;;;;;;;8.59;48.10;99215.22;4917715;29;20055;-68
2022/04/20 02:54:30;;;;;;;11.30;2.40;;;;;;;8.54;48.14;99223.41;4917141;29;19926;-68
2022/04/20 02:56:56;;;;;;;7.18;2.40;;;;;;;8.48;48.11;99217.91;4901333;29;20047;-68
2022/04/20 02:59:23;;;;;;;9.27;2.83;;;;;;;8.52;48.19;99223.66;4918033;29;20151;-69
2022/04/20 03:01:49;;;;;;;7.57;2.70;;;;;;;8.57;48.11;99231.81;4916601;29;20505;-68
2022/04/20 03:04:18;;;;;;;8.88;2.72;;;;;;;8.53;48.06;99228.03;4916320;29;20059;-68
2022/04/20 03:06:45;;;;;;;9.00;2.88;;;;;;;8.55;47.95;99238.66;4920193;29;20154;-67
2022/04/20 03:09:18;;;;;;;17.48;4.57;;;;;;;8.54;47.89;99242.47;4934143;29;20469;-69
2022/04/20 03:11:44;;;;;;;23.13;6.45;;;;;;;8.49;47.98;99226.91;4933721;29;20063;-68
2022/04/20 03:14:13;;;;;;;18.45;8.07;;;;;;;8.50;47.47;99204.06;4915373;29;20064;-68
2022/04/20 03:16:40;;;;;;;12.43;5.35;;;;;;;8.59;47.47;99213.31;4932912;29;20055;-69
2022/04/20 03:19:10;;;;;;;11.57;4.57;;;;;;;8.65;47.26;99206.75;4918332;29;20123;-68
2022/04/20 03:21:37;;;;;;;8.77;3.27;;;;;;;8.72;47.15;99214.63;4916748;29;20147;-69
2022/04/20 03:24:05;;;;;;;9.63;2.83;;;;;;;8.65;47.27;99225.81;4935756;29;20454;-68
2022/04/20 03:27:06;;;;;;;11.55;2.83;;;;;;;8.69;46.79;99230.72;4894362;29;20056;-68
2022/04/20 03:29:36;;;;;;;7.32;2.53;;;;;;;8.70;46.52;99226.91;4910843;29;20143;-68
2022/04/20 03:32:09;;;;;;;10.97;3.30;;;;;;;8.67;46.56;99211.94;4912232;29;20051;-68
2022/04/20 03:34:35;;;;;;;6.78;2.40;;;;;;;8.61;46.65;99224.75;4925841;29;20319;-68
2022/04/20 03:37:02;;;;;;;9.68;3.83;;;;;;;8.66;46.51;99218.44;4928740;29;20055;-68
2022/04/20 03:39:28;;;;;;;7.55;2.50;;;;;;;8.55;46.50;99198.59;4915587;29;20107;-69
2022/04/20 03:41:54;;;;;;;8.90;2.67;;;;;;;8.62;46.23;99212.75;4933827;29;20544;-68
2022/04/20 03:44:20;;;;;;;13.15;2.70;;;;;;;8.66;46.23;99199.38;4946014;29;20107;-68
2022/04/20 03:46:47;;;;;;;8.80;2.50;;;;;;;8.65;45.96;99205.91;4917052;29;20056;-69
2022/04/20 03:49:14;;;;;;;11.23;2.63;;;;;;;8.68;45.80;99193.66;4935905;29;20524;-68
2022/04/20 03:51:40;;;;;;;;;;;;;;;8.69;45.55;99195.28;4940137;29;20062;-68
2022/04/20 03:54:07;;;;;;;11.85;2.97;;;;;;;8.63;45.35;99180.84;4918087;29;20367;-69
2022/04/20 03:59:21;;;;;;;11.77;3.00;;;;;;;8.65;44.97;99176.78;4916343;29;20652;-68
2022/04/20 04:01:49;;;;;;;8.70;2.58;;;;;;;8.65;44.82;99182.22;4931722;29;20059;-68
2022/04/20 04:04:16;;;;;;;19.08;3.10;;;;;;;8.66;44.53;99177.56;4934198;29;20142;-69
2022/04/20 04:06:43;;;;;;;12.02;2.42;;;;;;;8.66;44.11;99172.13;4915996;29;20118;-69
2022/04/20 04:09:10;;;;;;;8.98;2.88;;;;;;;8.75;43.79;99192.28;4915376;29;20070;-68
2022/04/20 04:11:37;;;;;;;13.45;2.75;;;;;;;8.82;43.35;99182.97;4915303;29;20070;-68
2022/04/20 04:14:04;;;;;;;11.82;2.75;;;;;;;8.85;43.19;99185.16;4941035;29;20051;-67
2022/04/20 04:16:36;;;;;;;14.93;2.67;;;;;;;8.84;43.05;99181.59;4917219;29;20051;-69
2022/04/20 04:19:05;;;;;;;11.32;2.70;;;;;;;8.81;42.79;99195.81;4930240;29;20056;-67
2022/04/20 04:21:38;;;;;;;19.95;2.55;;;;;;;8.85;42.35;99201.53;4916313;29;20083;-68
2022/04/20 04:24:06;;;;;;;8.05;2.60;;;;;;;8.82;42.00;99199.31;4916949;29;20050;-68
2022/04/20 04:26:37;;;;;;;11.43;2.13;;;;;;;8.90;42.20;99202.31;4914815;29;20424;-68
2022/04/20 04:29:04;;;;;;;9.13;2.40;;;;;;;8.87;41.95;99200.13;4938419;29;20543;-68
2022/04/20 04:31:31;;;;;;;8.32;2.38;;;;;;;8.97;41.87;99207.44;4931652;29;20516;-66
2022/04/20 04:33:58;;;;;;;11.68;2.42;;;;;;;8.97;41.59;99207.44;4930384;29;20535;-66
2022/04/20 04:36:26;;;;;;;6.90;2.10;;;;;;;9.02;41.58;99220.25;4932856;29;20416;-67
2022/04/20 04:38:55;;;;;;;9.27;2.67;;;;;;;9.07;41.61;99217.53;4933060;29;20528;-67
2022/04/20 04:41:28;;;;;;;8.60;2.30;;;;;;;9.12;41.21;99235.75;4916357;29;20063;-68
2022/04/20 04:43:56;;;;;;;9.93;2.58;;;;;;;9.08;40.98;99238.25;4914994;29;20517;-67
2022/04/20 04:49:18;;;;;;;10.05;2.70;;;;;;;9.24;40.49;99239.00;4913940;29;20537;-67
2022/04/20 04:51:44;;;;;;;11.88;2.60;;;;;;;9.27;40.49;99245.81;4914396;29;20073;-67
2022/04/20 04:54:15;;;;;;;10.63;2.78;;;;;;;9.27;40.42;99246.59;4930483;29;20054;-66
2022/04/20 04:56:41;;;;;;;7.32;2.60;;;;;;;9.37;40.12;99253.94;4937143;29;20079;-68
2022/04/20 04:59:08;;;;;;;10.90;2.80;;;;;;;9.39;40.11;99250.94;4931018;29;20480;-68
2022/04/20 05:01:34;;;;;;;14.25;2.55;;;;;;;9.45;39.77;99256.09;4916627;29;20063;-67
2022/04/20 05:04:11;;;;;;;12.18;2.58;;;;;;;9.50;39.20;99260.69;4913291;29;20075;-67
2022/04/20 05:06:37;;;;;;;11.70;2.35;;;;;;;9.45;38.75;99252.56;4914123;29;20052;-68
2022/04/20 05:09:19;;;;;;;12.55;2.72;;;;;;;9.49;38.46;99248.97;4913960;29;20066;-68
2022/04/20 05:11:48;;;;;;;14.43;2.60;;;;;;;9.55;38.26;99241.56;4916364;29;20484;-67
2022/04/20 05:14:16;;;;;;;19.65;3.08;;;;;;;9.62;37.68;99250.28;4915137;29;20082;-67
2022/04/20 05:16:46;;;;;;;22.73;2.78;;;;;;;9.59;37.02;99259.00;4915814;29;20056;-67
2022/04/20 05:19:15;;;;;;;7.50;2.03;;;;;;;9.65;36.53;99246.97;4913968;29;20059;-67
2022/04/20 05:21:41;;;;;;;12.77;2.40;;;;;;;9.74;36.33;99249.09;4931386;29;20060;-68
2022/04/20 05:24:09;;;;;;;10.02;2.05;;;;;;;9.79;36.00;99244.41;4930473;29;20052;-66
2022/04/20 05:26:38;;;;;;;10.50;2.10;;;;;;;9.82;35.98;99248.50;4915876;29;20059;-67
2022/04/20 05:29:06;;;;;;;13.63;2.28;;;;;;;9.84;36.13;99250.97;4939912;29;20072;-67
2022/04/20 05:31:42;;;;;;;12.70;2.50;;;;;;;9.85;35.89;99253.41;4915083;29;20079;-67
2022/04/20 05:34:11;;;;;;;8.32;1.70;;;;;;;9.86;36.01;99251.50;4931710;29;20424;-67
2022/04/20 05:42:10;;;;;;;12.90;2.40;;;;;;;10.01;35.13;99270.50;4929493;29;20067;-67
2022/04/20 05:44:37;;;;;;;11.70;2.55;;;;;;;10.02;35.07;99277.59;4913291;29;20040;-66
2022/04/20 05:47:03;;;;;;;14.60;2.30;;;;;;;10.06;34.75;99270.47;4917082;29;20078;-66
2022/04/20 05:49:30;;;;;;;19.00;1.83;;;;;;;10.11;34.98;99269.59;4934609;29;20130;-67
2022/04/20 05:51:56;;;;;;;12.00;2.00;;;;;;;10.11;34.89;99271.50;4917294;29;20116;-67
2022/04/20 05:54:23;;;;;;;24.55;2.13;;;;;;;10.17;34.69;99264.94;4931292;29;20119;-67
2022/04/20 05:56:49;;;;;;;13.90;1.80;;;;;;;10.16;34.84;99264.09;4914401;29;20154;-67
2022/04/20 05:59:17;;;;;;;12.70;2.15;;;;;;;10.22;35.10;99262.16;4931601;29;20136;-65
2022/04/20 06:01:43;;;;;;;8.30;1.90;;;;;;;10.29;35.11;99261.81;4917260;29;20504;-67
2022/04/20 06:04:20;;;;;;;14.27;2.15;;;;;;;10.32;35.25;99277.63;4920008;29;20063;-67
2022/04/20 06:07:01;;;;;;;16.95;2.40;;;;;;;10.39;35.21;99278.13;4936106;29;20112;-66
2022/04/20 06:09:33;;;;;;;9.00;1.98;;;;;;;10.47;35.58;99298.59;4934818;29;20114;-70
2022/04/20 06:12:15;;;;;;;13.15;4.28;;;;;;;10.42;36.04;99285.78;4934144;29;20512;-70
2022/04/20 06:15:02;;;;;;;11.18;2.00;;;;;;;10.56;36.09;99293.34;4914413;29;20555;-70
2022/04/20 06:17:52;;;;;;;11.30;2.10;;;;;;;10.57;36.09;99297.69;4904260;29;20063;-70
2022/04/20 06:20:18;;;;;;;10.00;1.92;;;;;;;10.56;36.51;99274.19;4914388;29;20155;-68
2022/04/20 06:22:44;;;;;;;15.63;2.05;;;;;;;10.70;36.80;99288.84;4933876;29;20568;-66
2022/04/20 06:25:34;;;;;;;5.45;1.80;;;;;;;10.81;37.14;99303.22;4929240;29;20413;-65
2022/04/20 06:28:14;;;;;;;13.63;2.42;;;;;;;10.86;37.13;99305.88;4925459;29;20146;-67
2022/04/20 06:31:07;;;;;;;9.55;2.08;;;;;;;10.89;37.17;99288.88;4932432;29;20472;-65
2022/04/20 06:33:58;;;;;;;24.75;2.17;;;;;;;10.99;37.17;99281.69;4896286;29;20083;-68
2022/04/20 06:36:56;;;;;;;6.53;1.60;;;;;;;10.98;37.30;99274.59;4911642;29;20643;-67
2022/04/20 06:39:41;;;;;;;21.98;1.85;;;;;;;11.01;37.36;99269.38;4937186;29;20047;-67
2022/04/20 06:42:30;;;;;;;17.52;1.75;;;;;;;11.11;37.48;99273.06;4927846;29;20115;-68
2022/04/20 06:45:13;;;;;;;5.43;1.75;;;;;;;11.17;37.41;99280.94;4918582;29;20048;-68
2022/04/20 06:47:48;;;;;;;17.20;1.70;;;;;;;11.22;37.52;99280.06;4916298;29;20055;-68
2022/04/20 06:50:46;;;;;;;9.63;1.73;;;;;;;11.26;37.78;99264.69;4931677;29;20047;-68
2022/04/20 06:59:02;;;;;;;18.95;2.53;;;;;;;11.39;38.16;99249.47;4933250;29;20056;-68
2022/04/20 07:01:57;;;;;;;14.88;2.20;;;;;;;11.47;38.16;99243.34;4933934;29;20129;-68
2022/04/20 07:04:25;;;;;;;21.67;2.20;;;;;;;11.48;38.52;99252.38;4931422;29;20052;-68
2022/04/20 07:07:14;;;;;;;15.38;2.80;;;;;;;11.53;38.28;99240.53;4911982;29;20398;-69
2022/04/20 07:10:00;;;;;;;9.53;2.27;;;;;;;11.61;38.18;99248.09;4933769;29;20139;-69
2022/04/20 07:12:41;;;;;;;15.18;2.20;;;;;;;11.69;37.74;99255.63;4931608;29;20224;-69
2022/04/20 07:15:08;;;;;;;16.60;2.30;;;;;;;11.69;36.89;99258.38;4934807;29;20056;-70
2022/04/20 07:17:34;;;;;;;6.95;1.88;;;;;;;11.79;36.50;99254.69;4933451;29;20066;-68
2022/04/20 07:20:40;;;;;;;12.07;1.90;;;;;;;11.75;36.24;99249.00;4888454;29;20048;-69
2022/04/20 07:23:39;;;;;;;6.75;1.80;;;;;;;11.96;35.94;99275.28;4868019;29;20083;-70
2022/04/20 07:26:28;;;;;;;8.32;1.90;;;;;;;11.99;35.79;99266.47;4882213;29;20051;-69
2022/04/20 07:29:10;;;;;;;8.18;1.60;;;;;;;12.12;35.54;99265.75;4931687;29;20063;-69
2022/04/20 07:31:42;;;;;;;10.43;1.90;;;;;;;12.18;35.58;99256.31;4933533;29;20063;-70
2022/04/20 07:34:31;;;;;;;6.97;1.90;;;;;;;12.28;35.22;99260.00;4929726;29;20079;-69
2022/04/20 07:37:04;;;;;;;11.50;1.98;;;;;;;12.34;35.22;99253.31;4928708;29;20086;-68
2022/04/20 07:40:00;;;;;;;13.85;2.20;;;;;;;12.40;35.43;99257.59;4914663;29;20056;-70
2022/04/20 07:42:26;;;;;;;17.27;1.85;;;;;;;12.47;35.18;99262.69;4930608;29;20135;-71
2022/04/20 07:45:16;;;;;;;12.95;2.10;;;;;;;12.52;35.08;99246.16;4916389;29;20063;-71
2022/04/20 07:47:46;;;;;;;9.68;2.22;;;;;;;12.61;34.74;99249.81;4899937;29;20059;-71
2022/04/20 07:50:36;;;;;;;21.02;2.50;;;;;;;12.65;34.61;99239.06;4925377;29;20210;-70
2022/04/20 07:53:22;;;;;;;17.23;2.28;;;;;;;12.74;34.52;99245.50;4929828;29;20116;-69
2022/04/20 07:56:16;;;;;;;7.03;1.83;;;;;;;12.80;34.31;99253.63;4896202;29;20059;-69
2022/04/20 07:58:53;;;;;;;16.58;1.98;;;;;;;12.82;33.99;99235.75;4935530;29;20056;-69
2022/04/20 08:01:30;;;;;;;20.15;2.08;;;;;;;12.83;33.96;99218.16;4930000;29;20087;-64
2022/04/20 08:03:59;;;;;;;13.95;2.03;;;;;;;12.89;33.50;99235.34;4934221;29;20063;-64
2022/04/20 08:06:46;;;;;;;33.27;3.67;;;;;;;12.94;33.21;99231.66;4928440;29;20397;-63
2022/04/20 08:09:13;;;;;;;10.23;1.83;;;;;;;13.01;33.21;99213.69;4910620;29;20316;-65
2022/04/20 08:11:39;;;;;;;26.30;2.30;;;;;;;13.10;33.06;99230.25;4903364;29;20051;-64
2022/04/20 08:14:12;;;;;;;12.43;1.95;;;;;;;13.16;32.64;99231.78;4914430;29;20078;-65
2022/04/20 08:16:43;;;;;;;25.77;3.53;;;;;;;13.22;32.30;99221.50;4931652;29;20079;-64
2022/04/20 08:19:22;;;;;;;9.23;1.88;;;;;;;13.25;32.06;99220.06;4929412;29;20078;-64
2022/04/20 08:21:53;;;;;;;19.67;2.28;;;;;;;13.35;31.92;99225.34;4932331;29;20070;-64
2022/04/20 08:24:20;;;;;;;14.85;2.42;;;;;;;13.43;32.18;99216.44;4928514;29;20716;-64
2022/04/20 08:26:47;;;;;;;25.30;2.45;;;;;;;13.49;31.96;99230.03;4930493;29;20055;-69
2022/04/20 08:29:13;;;;;;;9.95;1.90;;;;;;;13.62;31.80;99234.69;4931644;29;20063;-72
2022/04/20 08:31:39;;;;;;;11.77;2.20;;;;;;;13.71;31.78;99227.31;4931128;29;20198;-70
2022/04/20 08:34:05;;;;;;;10.30;1.90;;;;;;;13.84;31.69;99222.09;4933155;29;20051;-71
2022/04/20 08:36:32;;;;;;;7.20;1.83;;;;;;;13.93;31.40;99234.00;4914512;29;20063;-71
2022/04/20 08:38:58;;;;;;;13.63;2.00;;;;;;;14.00;31.43;99217.06;4933892;29;20428;-71
2022/04/20 08:41:25;;;;;;;9.15;1.88;;;;;;;14.12;31.24;99230.25;4932047;29;20055;-71
2022/04/20 08:43:52;;;;;;;13.20;2.28;;;;;;;14.21;31.07;99216.56;4932553;29;20121;-72
2022/04/20 08:46:19;;;;;;;12.23;2.47;;;;;;;14.30;30.75;99220.19;4930627;29;20059;-70
2022/04/20 08:48:45;;;;;;;16.25;2.47;;;;;;;14.37;30.46;99209.53;4923555;29;20068;-72
2022/04/20 08:51:12;;;;;;;17.13;2.63;;;;;;;14.51;30.51;99219.66;4932943;29;20133;-71
2022/04/20 08:53:38;;;;;;;21.02;2.10;;;;;;;14.59;30.40;99227.94;4932925;29;20063;-71
2022/04/20 08:58:53;;;;;;;17.17;2.28;;;;;;;14.76;30.22;99217.38;4924660;29;20630;-71
2022/04/20 09:01:20;;;;;;;22.70;2.42;;;;;;;14.83;29.95;99224.06;4906472;29;20067;-71
2022/04/20 09:03:47;;;;;;;10.10;2.10;;;;;;;14.88;29.25;99212.06;4932392;29;20150;-70
2022/04/20 09:06:13;;;;;;;6.95;2.08;;;;;;;14.95;28.78;99195.09;4916988;29;20307;-71
2022/04/20 09:08:40;;;;;;;15.43;2.40;;;;;;;15.00;28.46;99204.03;4929421;29;20059;-71
2022/04/20 09:11:07;;;;;;;17.20;2.63;;;;;;;15.06;28.37;99214.88;4932534;29;20064;-72
2022/04/20 09:13:35;;;;;;;15.88;2.58;;;;;;;15.12;28.60;99206.16;4935729;29;20055;-72
2022/04/20 09:16:06;;;;;;;9.98;2.40;;;;;;;15.14;27.68;99206.66;4915011;29;20595;-70
2022/04/20 09:18:32;;;;;;;12.55;2.22;;;;;;;15.19;27.75;99216.69;4931859;29;20131;-72
2022/04/20 09:21:05;;;;;;;12.65;2.45;;;;;;;15.29;27.51;99180.59;4917770;29;20051;-71
2022/04/20 09:23:32;;;;;;;16.88;3.05;;;;;;;15.32;27.09;99217.72;4914525;29;20060;-71
2022/04/20 09:26:07;;;;;;;23.50;2.47;;;;;;;15.41;26.78;99214.97;4925303;29;20063;-71
2022/04/20 09:28:33;;;;;;;11.40;2.40;;;;;;;15.50;26.75;99209.47;4931038;29;20079;-71
2022/04/20 09:30:59;;;;;;;10.27;2.25;;;;;;;15.62;26.74;99222.59;4917372;29;20071;-71
2022/04/20 09:33:41;;;;;;;6.50;1.90;;;;;;;15.78;26.46;99214.69;4933364;29;20063;-73
2022/04/20 09:36:08;;;;;;;25.02;2.88;;;;;;;15.94;26.11;99229.63;4931263;29;20052;-74
2022/04/20 09:38:37;;;;;;;11.30;3.65;;;;;;;16.04;25.90;99222.16;4934478;29;20519;-74
2022/04/20 09:41:09;;;;;;;11.95;2.55;;;;;;;16.13;25.50;99221.00;4913337;29;20056;-68
2022/04/20 09:43:36;;;;;;;18.92;2.55;;;;;;;16.25;25.25;99214.84;4929744;29;20052;-68
2022/04/20 09:46:04;;;;;;;20.00;4.10;;;;;;;16.26;24.55;99212.88;4919338;29;20063;-67
2022/04/20 09:51:20;;;;;;;11.35;2.55;;;;;;;16.49;24.28;99230.03;4930359;29;19931;-66
2022/04/20 09:53:50;;;;;;;10.70;2.53;;;;;;;16.56;24.35;99224.00;4932774;29;20086;-66
2022/04/20 09:56:18;;;;;;;10.50;2.20;;;;;;;16.67;24.00;99228.03;4936138;29;20067;-67
2022/04/20 09:58:47;;;;;;;13.07;2.70;;;;;;;16.82;24.16;99223.91;4931166;29;20146;-67
2022/04/20 10:01:24;;;;;;;12.57;2.83;;;;;;;16.90;24.04;99213.19;4917035;29;20537;-67
2022/04/20 10:03:54;;;;;;;11.80;2.67;;;;;;;17.01;24.09;99220.78;4917874;29;20436;-68
2022/04/20 10:06:21;;;;;;;10.40;2.60;;;;;;;17.01;23.84;99229.06;4935874;29;20103;-67
2022/04/20 10:08:47;;;;;;;16.50;2.75;;;;;;;17.10;23.67;99217.97;4935537;29;20509;-68
2022/04/20 10:11:15;;;;;;;9.00;2.85;;;;;;;17.18;23.81;99201.69;4929536;29;20062;-67
2022/04/20 10:13:41;;;;;;;13.73;2.70;;;;;;;17.21;23.11;99228.66;4930315;29;20056;-68
2022/04/20 10:16:11;;;;;;;11.18;2.30;;;;;;;17.28;23.29;99210.41;4933635;29;20417;-67
2022/04/20 10:18:39;;;;;;;15.23;2.90;;;;;;;17.28;22.87;99215.94;4935839;29;20058;-67
2022/04/20 10:21:08;;;;;;;15.85;2.53;;;;;;;17.41;22.72;99219.56;4921270;29;20056;-67
2022/04/20 10:23:39;;;;;;;14.48;2.63;;;;;;;17.50;22.83;99229.78;4931396;29;20135;-67
2022/04/20 10:26:07;;;;;;;7.95;2.25;;;;;;;17.62;22.70;99217.97;4934071;29;20528;-67
2022/04/20 10:28:42;;;;;;;10.13;2.30;;;;;;;17.73;23.08;99216.44;4940074;29;20146;-66
2022/04/20 10:31:20;;;;;;;17.70;2.97;;;;;;;17.73;22.45;99205.38;4932401;29;20059;-67
2022/04/20 10:33:53;;;;;;;24.67;2.40;;;;;;;17.71;22.42;99210.41;4926611;29;20095;-71
2022/04/20 10:36:57;;;;;;;15.00;2.80;;;;;;;17.76;22.87;99218.53;4919684;29;20520;-67
2022/04/20 10:39:25;;;;;;;13.30;2.83;;;;;;;17.82;22.86;99221.91;4907037;29;20056;-68
2022/04/20 10:42:21;;;;;;;14.18;2.53;;;;;;;17.87;22.67;99207.88;4932327;29;20595;-74
2022/04/20 10:45:00;;;;;;;11.50;2.65;;;;;;;17.75;22.65;99194.78;4928254;29;20051;-75
2022/04/20 10:47:28;;;;;;;17.13;2.85;;;;;;;17.88;22.17;99192.09;4916579;29;20559;-74
2022/04/20 10:50:14;;;;;;;15.63;2.95;;;;;;;17.98;22.31;99209.06;4934384;29;20059;-73
2022/04/20 10:52:42;;;;;;;14.93;2.70;;;;;;;18.07;22.71;99186.91;4934271;29;20427;-72
2022/04/20 10:55:11;;;;;;;13.15;2.50;;;;;;;18.23;22.53;99213.91;4945112;29;20139;-72
2022/04/20 10:57:39;;;;;;;12.43;2.45;;;;;;;18.21;22.49;99197.66;4934287;29;20051;-73
2022/04/20 11:00:27;;;;;;;16.63;3.28;;;;;;;18.13;22.32;99217.91;4935376;29;20055;-73
2022/04/20 11:02:55;;;;;;;13.52;3.00;;;;;;;18.12;22.27;99202.47;4930785;29;20066;-73
2022/04/20 11:05:22;;;;;;;14.40;2.95;;;;;;;18.13;22.17;99191.06;4933496;29;20047;-71
2022/04/20 11:08:12;;;;;;;17.45;3.28;;;;;;;18.29;21.56;99184.88;4930720;29;20052;-72
2022/04/20 11:10:41;;;;;;;13.25;2.28;;;;;;;18.49;21.59;99198.97;4929168;29;20079;-73
2022/04/20 11:19:11;;;;;;;16.75;2.97;;;;;;;18.97;21.59;99204.91;4913353;29;20461;-72
2022/04/20 11:22:12;;;;;;;13.43;3.22;;;;;;;19.28;21.43;99200.78;4892638;29;20570;-70
2022/04/20 11:24:39;;;;;;;14.93;2.80;;;;;;;19.35;21.34;99192.69;4924218;29;20083;-72
2022/04/20 11:27:06;;;;;;;17.08;3.47;;;;;;;19.38;21.41;99180.91;4928174;29;20098;-71
2022/04/20 11:29:33;;;;;;;21.60;3.25;;;;;;;19.44;21.26;99187.03;4936464;29;20126;-72
2022/04/20 11:32:02;;;;;;;25.37;3.43;;;;;;;19.45;21.80;99169.25;4934625;29;20059;-71
2022/04/20 11:35:05;;;;;;;15.68;2.97;;;;;;;19.51;22.13;99173.38;4928442;29;20082;-72
2022/04/20 11:37:31;;;;;;;14.25;3.20;;;;;;;19.62;21.46;99176.44;4929674;29;20203;-71
2022/04/20 11:39:58;;;;;;;13.88;3.08;;;;;;;19.95;21.74;99178.22;4930782;29;20085;-70
2022/04/20 11:42:24;;;;;;;10.50;3.05;;;;;;;20.03;21.21;99148.69;4931558;29;20052;-71
2022/04/20 11:44:51;;;;;;;17.35;3.38;;;;;;;20.22;21.19;99169.44;4932888;29;20516;-70
2022/04/20 11:47:29;;;;;;;16.75;3.00;;;;;;;20.53;20.81;99162.31;4915931;29;20060;-70
2022/04/20 11:49:56;;;;;;;14.57;2.85;;;;;;;20.72;20.21;99163.53;4930195;29;20080;-71
2022/04/20 11:52:27;;;;;;;17.17;3.35;;;;;;;21.03;20.19;99153.59;4920351;29;20052;-70
2022/04/20 11:55:12;;;;;;;9.80;3.70;;;;;;;21.47;20.05;99150.59;4928660;29;20115;-71
2022/04/20 11:57:39;;;;;;;18.80;3.55;;;;;;;21.78;19.60;99146.09;4927669;29;20573;-71
2022/04/20 12:00:07;;;;;;;11.57;3.20;;;;;;;22.03;19.60;99139.41;4933323;29;20486;-70
2022/04/20 12:02:39;;;;;;;11.27;4.07;;;;;;;22.21;19.44;99140.53;4936881;29;20062;-72
2022/04/20 12:05:12;;;;;;;16.65;4.25;;;;;;;22.39;19.36;99126.13;4913629;29;20154;-71
2022/04/20 12:07:38;;;;;;;23.48;4.53;;;;;;;22.43;19.41;99132.56;4933593;29;20111;-70
2022/04/20 12:10:06;;;;;;;23.20;4.43;;;;;;;22.49;19.16;99147.84;4881853;29;20079;-70
2022/04/20 12:12:33;;;;;;;13.57;4.03;;;;;;;22.64;19.29;99137.72;4926952;29;20055;-70
2022/04/20 12:15:06;;;;;;;17.52;3.47;;;;;;;22.50;19.11;99127.16;4932927;29;20063;-72
2022/04/20 12:17:32;;;;;;;18.58;3.75;;;;;;;22.37;19.17;99122.91;4933932;29;20142;-72
2022/04/20 12:19:59;;;;;;;14.40;3.60;;;;;;;22.43;19.28;99143.69;4912676;29;20059;-70
2022/04/20 12:22:25;;;;;;;17.30;3.60;;;;;;;22.26;19.15;99124.69;4928911;29;20063;-72
2022/04/20 12:25:06;;;;;;;11.90;4.35;;;;;;;22.06;19.18;99133.09;4933183;29;20066;-71
2022/04/20 12:27:49;;;;;;;25.98;4.60;;;;;;;21.63;19.55;99119.13;4930389;29;20052;-70
2022/04/20 12:30:16;;;;;;;14.32;3.35;;;;;;;21.59;19.62;99107.13;4927213;29;20142;-70
2022/04/20 12:32:50;;;;;;;7.85;3.03;;;;;;;21.88;19.54;99116.88;4931854;29;20149;-70